Terminal Aerodrome Forecast
Issued by NWS Cleveland, OH

Home | Current Version | Previous Version | Text Only | Print | Product List | Glossary On
Versions: 1 2 3 4 5 6 7 8 9 10 11 12 13 14 15
000
FTUS41 KCLE 220500
TAFMFD
TAF
KMFD 220529Z 2206/2306 10005KT P6SM BKN250
     FM220800 12004KT 6SM BR BKN250
      TEMPO 2209/2213 4SM BR
     FM221400 15006KT P6SM SCT045 BKN120
      TEMPO 2214/2218 BKN045
     FM221800 16008KT P6SM BKN045
     FM222200 16008KT P6SM OVC025
     FM230200 14008KT 5SM BR VCSH OVC015=

USA.gov is the U.S. government's official web portal to all federal, state and local government web resources and services.